Time;durP1;ratioP1;P1;durP2;ratioP2;P2;SDS_P1;SDS_P2;PMS_P1;PMS_P2;Temp;Humidity;BMP_temperature;BMP_pressure;BME280_temperature;BME280_humidity;BME280_pressure;Samples;Min_cycle;Max_cycle;Signal;HPM_P1;HPM_P2
2023/06/29 00:00:00;;;;;;;57.05;50.85;;;23.50;99.50;;;;;;5012294;28;20037;-75
2023/06/29 00:02:29;;;;;;;58.10;51.92;;;23.30;99.90;;;;;;5011363;28;20038;-74
2023/06/29 00:04:55;;;;;;;58.03;51.88;;;23.20;99.90;;;;;;5012490;28;20398;-75
2023/06/29 00:07:24;;;;;;;55.60;49.80;;;23.30;99.90;;;;;;5011826;28;20517;-74
2023/06/29 00:09:52;;;;;;;55.97;49.15;;;23.10;99.90;;;;;;5011368;28;20395;-75
2023/06/29 00:12:18;;;;;;;55.88;50.00;;;23.20;99.90;;;;;;5012060;28;20037;-75
2023/06/29 00:14:45;;;;;;;57.92;51.83;;;23.20;99.90;;;;;;5012018;28;20034;-75
2023/06/29 00:17:14;;;;;;;56.53;50.42;;;23.30;99.90;;;;;;5011304;28;20038;-75
2023/06/29 00:19:41;;;;;;;57.10;51.20;;;23.40;99.90;;;;;;5013016;28;20046;-75
2023/06/29 00:22:09;;;;;;;57.35;51.20;;;23.40;99.90;;;;;;5015498;28;20049;-75
2023/06/29 00:24:42;;;;;;;57.83;51.92;;;23.50;99.90;;;;;;5015379;28;20399;-74
2023/06/29 00:27:11;;;;;;;57.33;51.42;;;23.60;99.80;;;;;;5015200;28;20057;-75
2023/06/29 00:29:39;;;;;;;59.53;53.25;;;23.70;99.60;;;;;;5015651;28;20034;-74
2023/06/29 00:32:06;;;;;;;60.25;54.08;;;23.60;99.70;;;;;;5030081;28;20037;-75
2023/06/29 00:34:32;;;;;;;58.13;52.22;;;23.60;99.80;;;;;;5015486;28;20061;-74
2023/06/29 00:36:58;;;;;;;59.17;53.30;;;23.70;99.70;;;;;;4989361;28;20035;-75
2023/06/29 00:39:24;;;;;;;59.90;53.80;;;23.60;99.80;;;;;;4976058;28;20045;-75
2023/06/29 00:41:54;;;;;;;55.80;50.00;;;23.70;99.70;;;;;;5002664;28;20368;-74
2023/06/29 00:44:20;;;;;;;57.00;51.08;;;23.80;99.80;;;;;;5015855;28;20042;-74
2023/06/29 00:46:47;;;;;;;56.75;51.15;;;23.80;99.70;;;;;;5029589;28;20041;-75
2023/06/29 00:49:13;;;;;;;57.22;50.95;;;23.80;99.50;;;;;;4997198;28;20038;-75
2023/06/29 00:51:39;;;;;;;57.35;51.35;;;23.90;99.60;;;;;;5006707;28;20026;-75
2023/06/29 00:54:06;;;;;;;56.28;50.47;;;23.80;99.80;;;;;;5030100;28;20041;-75
2023/06/29 00:56:32;;;;;;;57.03;51.08;;;23.80;99.90;;;;;;5014865;28;20030;-75
2023/06/29 00:58:58;;;;;;;57.38;50.72;;;23.60;99.90;;;;;;5030335;28;20040;-75
2023/06/29 01:01:26;;;;;;;56.80;49.58;;;23.40;99.90;;;;;;5014065;28;20038;-75
2023/06/29 01:03:52;;;;;;;55.63;49.72;;;23.30;99.90;;;;;;5014904;28;20048;-75
2023/06/29 01:06:20;;;;;;;55.50;48.97;;;23.10;99.90;;;;;;5014753;28;20029;-75
2023/06/29 01:08:47;;;;;;;56.85;50.85;;;23.20;99.90;;;;;;5029405;28;20038;-75
2023/06/29 01:11:13;;;;;;;55.92;50.05;;;23.10;99.90;;;;;;5029825;28;20030;-75
2023/06/29 01:13:40;;;;;;;56.25;50.17;;;23.20;99.90;;;;;;5030102;28;20383;-75
2023/06/29 01:16:06;;;;;;;55.17;49.13;;;23.10;99.90;;;;;;5013951;28;20037;-75
2023/06/29 01:18:32;;;;;;;54.88;48.78;;;23.10;99.90;;;;;;5030123;28;20042;-75
2023/06/29 01:20:59;;;;;;;55.38;49.50;;;23.20;99.90;;;;;;5014473;28;20030;-75
2023/06/29 01:23:25;;;;;;;58.83;52.38;;;23.00;99.90;;;;;;5029568;28;20038;-76
2023/06/29 01:25:55;;;;;;;58.10;50.47;;;23.00;99.90;;;;;;5029537;28;20033;-75
2023/06/29 01:28:22;;;;;;;58.45;52.20;;;23.00;99.90;;;;;;5029438;28;20029;-75
2023/06/29 01:30:51;;;;;;;67.75;61.33;;;23.00;99.90;;;;;;5013307;28;20049;-75
2023/06/29 01:33:18;;;;;;;68.38;61.55;;;23.00;99.90;;;;;;5014119;28;20025;-75
2023/06/29 01:35:44;;;;;;;65.00;58.60;;;23.00;99.90;;;;;;5010576;28;20034;-73
2023/06/29 01:38:20;;;;;;;66.80;60.17;;;22.90;99.90;;;;;;5009868;28;20038;-74
2023/06/29 01:40:47;;;;;;;66.30;59.97;;;23.00;99.90;;;;;;5012962;28;20029;-75
2023/06/29 01:43:13;;;;;;;68.68;62.22;;;23.10;99.90;;;;;;5014254;28;20041;-75
2023/06/29 01:45:39;;;;;;;71.13;64.60;;;23.20;99.90;;;;;;5028866;28;20388;-75
2023/06/29 01:48:05;;;;;;;71.28;64.47;;;23.20;99.90;;;;;;5005228;28;20046;-74
2023/06/29 01:50:31;;;;;;;68.93;61.95;;;23.30;99.90;;;;;;4995731;28;20044;-74
2023/06/29 01:52:58;;;;;;;68.57;61.97;;;23.40;99.90;;;;;;5029422;28;20493;-75
2023/06/29 01:55:24;;;;;;;70.72;64.20;;;23.40;99.90;;;;;;5029053;28;20057;-74
2023/06/29 01:57:50;;;;;;;70.32;63.75;;;23.40;99.90;;;;;;5014181;28;20029;-74
2023/06/29 02:00:16;;;;;;;72.00;65.22;;;23.40;99.90;;;;;;5012623;28;20026;-75
2023/06/29 02:02:42;;;;;;;70.78;64.22;;;23.50;99.90;;;;;;4984781;28;20507;-75
2023/06/29 02:05:08;;;;;;;80.10;73.07;;;23.40;99.90;;;;;;4988180;28;20034;-75
2023/06/29 02:07:34;;;;;;;87.15;79.75;;;23.40;99.90;;;;;;4984450;28;20057;-75
2023/06/29 02:10:01;;;;;;;73.82;67.13;;;23.40;99.90;;;;;;4992808;28;20395;-75
2023/06/29 02:12:27;;;;;;;85.00;77.60;;;23.40;99.90;;;;;;5011345;28;20042;-74
2023/06/29 02:14:53;;;;;;;84.82;77.60;;;23.40;99.90;;;;;;4994036;28;20383;-75
2023/06/29 02:17:19;;;;;;;89.47;81.88;;;23.40;99.90;;;;;;4992004;28;20031;-75
2023/06/29 02:19:45;;;;;;;97.80;89.85;;;23.40;99.90;;;;;;4992383;28;20057;-74
2023/06/29 02:22:11;;;;;;;91.10;83.63;;;23.40;99.90;;;;;;4992453;28;20030;-75
2023/06/29 02:24:37;;;;;;;86.30;78.97;;;23.40;99.90;;;;;;4992917;28;20809;-75
2023/06/29 02:27:03;;;;;;;98.28;90.50;;;23.40;99.90;;;;;;4992419;28;20050;-76
2023/06/29 02:29:29;;;;;;;110.97;102.45;;;23.30;99.90;;;;;;4992740;28;20041;-75
2023/06/29 02:31:56;;;;;;;98.63;90.80;;;23.30;99.90;;;;;;5007031;28;20432;-75
2023/06/29 02:34:22;;;;;;;92.68;85.05;;;23.20;99.90;;;;;;5011838;28;20030;-75
2023/06/29 02:36:48;;;;;;;98.47;90.63;;;23.20;99.90;;;;;;4998931;28;20407;-75
2023/06/29 02:39:14;;;;;;;90.28;82.57;;;23.20;99.90;;;;;;4993652;28;20030;-75
2023/06/29 02:41:40;;;;;;;92.43;84.63;;;23.20;99.90;;;;;;5005721;28;20052;-75
2023/06/29 02:44:06;;;;;;;89.90;82.18;;;23.20;99.90;;;;;;5012867;28;20051;-75
2023/06/29 02:46:32;;;;;;;96.03;88.22;;;23.10;99.90;;;;;;5012475;28;20057;-74
2023/06/29 02:48:58;;;;;;;89.47;81.57;;;23.10;99.90;;;;;;4998082;28;20054;-74
2023/06/29 02:51:24;;;;;;;84.65;77.35;;;23.10;99.90;;;;;;5003841;28;20529;-75
2023/06/29 02:53:50;;;;;;;79.85;72.93;;;23.10;99.90;;;;;;5012929;28;20034;-75
2023/06/29 02:56:16;;;;;;;72.22;65.55;;;23.00;99.90;;;;;;5012835;28;20480;-74
2023/06/29 02:58:42;;;;;;;68.35;61.58;;;23.00;99.90;;;;;;5013048;28;20659;-75
2023/06/29 03:01:09;;;;;;;68.47;61.58;;;23.00;99.90;;;;;;5012102;28;20038;-75
2023/06/29 03:03:35;;;;;;;66.20;59.72;;;23.00;99.90;;;;;;5012648;28;20463;-74
2023/06/29 03:06:01;;;;;;;65.43;59.00;;;22.90;99.90;;;;;;5012622;28;20053;-75
2023/06/29 03:08:27;;;;;;;67.32;60.83;;;23.00;99.90;;;;;;5027803;28;20041;-74
2023/06/29 03:10:53;;;;;;;65.45;59.15;;;23.00;99.90;;;;;;5012628;28;20460;-75
2023/06/29 03:13:19;;;;;;;69.90;63.20;;;23.00;99.90;;;;;;5012689;28;20106;-75
2023/06/29 03:15:45;;;;;;;78.43;71.07;;;22.90;99.90;;;;;;5012074;28;20384;-74
2023/06/29 03:18:11;;;;;;;75.28;68.53;;;22.90;99.90;;;;;;5012281;28;20041;-75
2023/06/29 03:20:37;;;;;;;73.30;66.72;;;22.80;99.90;;;;;;5012343;28;20037;-75
2023/06/29 03:23:03;;;;;;;74.20;67.43;;;22.70;99.90;;;;;;5012944;28;20372;-75
2023/06/29 03:25:30;;;;;;;114.20;105.78;;;22.60;99.90;;;;;;5012320;28;20037;-75
2023/06/29 03:27:56;;;;;;;83.95;76.82;;;22.50;99.90;;;;;;5012408;28;20050;-75
2023/06/29 03:30:22;;;;;;;89.55;81.85;;;22.50;99.90;;;;;;5012148;28;20049;-74
2023/06/29 03:32:48;;;;;;;97.20;89.32;;;22.60;99.90;;;;;;5012180;28;20132;-74
2023/06/29 03:35:14;;;;;;;100.50;92.72;;;22.50;99.90;;;;;;5012329;28;20034;-75
2023/06/29 03:37:40;;;;;;;131.45;122.28;;;22.60;99.90;;;;;;4975438;28;20030;-74
2023/06/29 03:40:07;;;;;;;117.57;108.68;;;22.70;99.90;;;;;;4973581;28;20042;-75
2023/06/29 03:42:33;;;;;;;106.57;98.18;;;22.70;99.90;;;;;;5012138;28;20038;-74
2023/06/29 03:44:59;;;;;;;104.13;96.28;;;22.80;99.90;;;;;;5012581;28;20034;-74
2023/06/29 03:47:25;;;;;;;102.57;94.88;;;22.70;99.90;;;;;;5008881;28;20660;-74
2023/06/29 03:49:51;;;;;;;100.30;92.78;;;22.70;99.90;;;;;;4992529;28;20046;-74
2023/06/29 03:52:17;;;;;;;93.38;85.97;;;22.60;99.90;;;;;;4992895;28;20387;-74
2023/06/29 03:54:43;;;;;;;83.80;76.80;;;22.50;99.90;;;;;;4993516;28;20027;-75
2023/06/29 03:57:10;;;;;;;122.38;113.40;;;22.40;99.90;;;;;;5008995;28;20391;-74
2023/06/29 03:59:36;;;;;;;111.18;102.80;;;22.40;99.90;;;;;;5016272;28;20034;-74
2023/06/29 04:02:02;;;;;;;75.97;69.28;;;22.40;99.90;;;;;;5015118;28;20041;-74
2023/06/29 04:04:28;;;;;;;79.80;73.15;;;22.30;99.90;;;;;;5016181;28;20034;-74
2023/06/29 04:06:54;;;;;;;83.30;76.00;;;22.30;99.90;;;;;;5015496;28;20498;-75
2023/06/29 04:09:20;;;;;;;73.80;67.20;;;22.30;99.90;;;;;;5016177;28;20065;-75
2023/06/29 04:11:46;;;;;;;94.20;86.78;;;22.30;99.90;;;;;;5015934;28;20410;-74
2023/06/29 04:14:12;;;;;;;79.25;72.32;;;22.30;99.90;;;;;;5014872;28;20049;-76
2023/06/29 04:16:38;;;;;;;88.53;80.95;;;22.20;99.90;;;;;;5014694;28;20038;-74
2023/06/29 04:19:04;;;;;;;84.75;77.18;;;22.30;99.90;;;;;;5015903;28;20479;-74
2023/06/29 04:21:30;;;;;;;94.78;87.28;;;22.30;99.90;;;;;;5015349;28;20034;-74
2023/06/29 04:23:56;;;;;;;108.97;100.60;;;22.30;99.90;;;;;;5015717;28;20486;-74
2023/06/29 04:26:23;;;;;;;112.05;103.45;;;22.20;99.90;;;;;;5015483;28;20038;-74
2023/06/29 04:28:49;;;;;;;114.68;105.65;;;22.10;99.90;;;;;;5030986;28;20042;-75
2023/06/29 04:31:15;;;;;;;117.30;108.43;;;22.10;99.90;;;;;;5014443;28;20467;-75
2023/06/29 04:33:41;;;;;;;101.75;93.97;;;22.00;99.90;;;;;;5015690;28;20041;-74
2023/06/29 04:36:07;;;;;;;95.80;87.95;;;21.90;99.90;;;;;;5002938;28;20026;-75
2023/06/29 04:38:33;;;;;;;103.95;95.78;;;21.80;99.90;;;;;;4977252;28;20042;-74
2023/06/29 04:41:06;;;;;;;101.82;93.72;;;21.80;99.90;;;;;;4989354;28;20466;-75
2023/06/29 04:43:32;;;;;;;83.47;76.47;;;21.60;99.90;;;;;;5015325;28;20057;-75
2023/06/29 04:45:59;;;;;;;98.95;91.18;;;21.80;99.90;;;;;;5029653;28;20033;-74
2023/06/29 04:48:29;;;;;;;88.05;80.25;;;21.80;99.90;;;;;;5005146;28;20051;-73
2023/06/29 04:51:04;;;;;;;64.00;57.78;;;21.80;99.90;;;;;;5001426;28;20049;-75
2023/06/29 04:53:34;;;;;;;71.25;64.85;;;21.80;99.90;;;;;;5015255;28;20391;-74
2023/06/29 04:56:01;;;;;;;72.93;66.40;;;21.80;99.90;;;;;;5015011;28;20046;-75
2023/06/29 04:58:27;;;;;;;64.05;57.60;;;21.90;99.90;;;;;;5014972;28;20041;-74
2023/06/29 05:00:56;;;;;;;65.10;58.97;;;21.90;99.90;;;;;;5014219;28;20041;-75
2023/06/29 05:03:23;;;;;;;72.32;65.75;;;21.90;99.90;;;;;;5015070;28;20356;-74
2023/06/29 05:05:49;;;;;;;66.93;60.58;;;21.90;99.90;;;;;;5013718;28;20045;-74
2023/06/29 05:08:15;;;;;;;66.97;60.92;;;21.90;99.90;;;;;;5014598;28;20063;-74
2023/06/29 05:10:42;;;;;;;66.88;60.65;;;22.00;99.90;;;;;;5014571;28;20042;-74
2023/06/29 05:13:08;;;;;;;66.78;60.42;;;21.90;99.90;;;;;;5014800;28;20038;-73
2023/06/29 05:15:34;;;;;;;65.85;58.97;;;21.90;99.90;;;;;;5013869;28;20037;-74
2023/06/29 05:18:00;;;;;;;61.95;55.40;;;21.90;99.90;;;;;;5014728;28;20041;-74
2023/06/29 05:20:26;;;;;;;60.65;54.58;;;21.80;99.90;;;;;;5029588;28;20034;-75
2023/06/29 05:22:52;;;;;;;74.43;67.38;;;21.80;99.90;;;;;;5014824;28;20038;-74
2023/06/29 05:25:19;;;;;;;60.55;54.60;;;21.90;99.90;;;;;;5014491;28;20034;-74
2023/06/29 05:27:45;;;;;;;70.15;64.07;;;21.90;99.90;;;;;;5014220;28;20022;-72
2023/06/29 05:30:11;;;;;;;80.88;73.95;;;21.90;99.90;;;;;;5013846;28;20047;-73
2023/06/29 05:32:38;;;;;;;81.80;74.88;;;22.00;99.90;;;;;;5029570;28;20030;-73
2023/06/29 05:35:04;;;;;;;81.45;74.22;;;22.00;99.90;;;;;;5014575;28;20029;-73
2023/06/29 05:37:30;;;;;;;91.32;84.03;;;22.00;99.90;;;;;;4979519;28;20047;-74
2023/06/29 05:39:56;;;;;;;88.03;81.20;;;22.10;99.90;;;;;;4975506;28;20468;-74
2023/06/29 05:42:23;;;;;;;83.28;76.55;;;22.10;99.90;;;;;;5010369;28;20045;-74
2023/06/29 05:44:49;;;;;;;85.40;78.18;;;22.20;99.90;;;;;;5014255;28;20382;-74
2023/06/29 05:47:15;;;;;;;73.38;66.93;;;22.10;99.90;;;;;;5012311;28;20041;-74
2023/06/29 05:49:42;;;;;;;73.53;67.05;;;22.20;99.90;;;;;;4994682;28;20046;-74
2023/06/29 05:52:08;;;;;;;82.53;75.65;;;22.20;99.90;;;;;;5008937;28;20030;-73
2023/06/29 05:54:35;;;;;;;89.93;82.88;;;22.20;99.90;;;;;;5014301;28;20045;-74
2023/06/29 05:57:01;;;;;;;101.53;93.88;;;22.20;99.90;;;;;;5013585;28;20033;-74
2023/06/29 05:59:27;;;;;;;111.82;103.43;;;22.20;99.90;;;;;;5013559;28;20491;-74
2023/06/29 06:01:53;;;;;;;120.22;111.47;;;22.30;99.90;;;;;;5012963;28;20038;-74
2023/06/29 06:04:19;;;;;;;132.80;123.57;;;22.50;99.90;;;;;;5013901;28;20053;-74
2023/06/29 06:06:46;;;;;;;140.90;131.40;;;22.50;99.90;;;;;;5013578;28;20037;-74
2023/06/29 06:09:12;;;;;;;134.40;125.15;;;22.50;99.90;;;;;;5013666;28;20418;-74
2023/06/29 06:11:38;;;;;;;129.77;120.93;;;22.60;99.90;;;;;;5012894;28;20045;-74
2023/06/29 06:14:04;;;;;;;141.93;132.50;;;22.70;99.90;;;;;;5028800;28;20391;-74
2023/06/29 06:16:30;;;;;;;147.07;137.32;;;22.70;99.90;;;;;;5012872;28;20038;-74
2023/06/29 06:18:56;;;;;;;149.43;139.93;;;22.70;99.90;;;;;;5013290;28;20029;-74
2023/06/29 06:21:24;;;;;;;156.65;146.20;;;22.90;99.90;;;;;;5012916;28;20037;-74
2023/06/29 06:23:51;;;;;;;161.90;151.45;;;23.00;99.90;;;;;;5013770;28;20042;-74
2023/06/29 06:26:17;;;;;;;157.93;147.68;;;23.20;99.90;;;;;;5028219;28;20415;-74
2023/06/29 06:28:43;;;;;;;160.38;149.93;;;23.30;99.90;;;;;;5013236;28;20038;-75
2023/06/29 06:31:09;;;;;;;148.82;139.00;;;23.40;99.90;;;;;;5012777;28;20041;-73
2023/06/29 06:33:36;;;;;;;173.77;162.93;;;23.40;99.90;;;;;;5013435;28;20026;-74
2023/06/29 06:36:02;;;;;;;149.82;139.90;;;23.50;99.90;;;;;;5002296;28;20044;-74
2023/06/29 06:38:28;;;;;;;170.82;160.00;;;23.40;99.90;;;;;;4973033;28;20034;-73
2023/06/29 06:40:54;;;;;;;173.88;162.63;;;23.40;99.90;;;;;;4985559;28;20422;-74
2023/06/29 06:43:20;;;;;;;145.57;135.88;;;23.50;99.90;;;;;;5013146;28;20037;-74
2023/06/29 06:45:46;;;;;;;140.85;131.40;;;23.60;99.90;;;;;;5027442;28;20041;-74
2023/06/29 06:48:13;;;;;;;135.02;125.80;;;23.60;99.90;;;;;;5004816;28;20050;-74
2023/06/29 06:50:39;;;;;;;152.90;143.05;;;23.70;99.90;;;;;;4996859;28;20046;-74
2023/06/29 06:53:05;;;;;;;165.75;155.02;;;23.60;99.90;;;;;;5013156;28;20048;-73
2023/06/29 06:55:31;;;;;;;129.65;120.75;;;23.70;99.90;;;;;;5012658;28;20037;-74
2023/06/29 06:57:57;;;;;;;133.80;124.97;;;23.90;99.90;;;;;;5012931;28;20029;-74
2023/06/29 07:00:24;;;;;;;147.38;137.73;;;24.00;99.90;;;;;;5012200;28;20498;-74
2023/06/29 07:02:50;;;;;;;157.80;147.73;;;24.00;99.90;;;;;;5012778;28;20042;-74
2023/06/29 07:05:16;;;;;;;138.68;129.25;;;24.10;99.90;;;;;;5012595;28;20498;-75
2023/06/29 07:07:42;;;;;;;136.68;127.20;;;24.00;99.90;;;;;;5028114;28;20029;-74
2023/06/29 07:10:09;;;;;;;102.88;95.28;;;23.90;99.90;;;;;;5012542;28;20045;-74
2023/06/29 07:12:36;;;;;;;101.38;93.70;;;23.90;99.90;;;;;;5012842;28;20042;-74
2023/06/29 07:15:03;;;;;;;97.97;90.55;;;24.00;99.90;;;;;;5012542;28;20022;-68
2023/06/29 07:17:30;;;;;;;94.55;87.75;;;24.10;99.90;;;;;;4993535;28;20479;-74
2023/06/29 07:19:56;;;;;;;112.95;105.18;;;24.20;99.90;;;;;;4993470;28;20046;-74
2023/06/29 07:22:22;;;;;;;113.10;104.95;;;24.20;99.90;;;;;;4992894;28;20033;-75
2023/06/29 07:24:48;;;;;;;112.07;104.30;;;24.40;99.90;;;;;;4992726;28;20030;-75
2023/06/29 07:27:14;;;;;;;119.07;110.63;;;24.40;99.90;;;;;;4992834;28;20041;-74
2023/06/29 07:29:44;;;;;;;115.93;107.82;;;24.50;99.90;;;;;;4992264;28;20117;-75
2023/06/29 07:32:10;;;;;;;113.70;105.33;;;24.50;99.90;;;;;;5008533;28;20037;-74
2023/06/29 07:34:37;;;;;;;110.07;102.38;;;24.50;99.90;;;;;;5012576;28;20475;-74
2023/06/29 07:37:03;;;;;;;107.78;99.93;;;24.60;99.90;;;;;;4985196;28;20034;-74
2023/06/29 07:39:29;;;;;;;108.65;101.03;;;24.60;99.90;;;;;;4973700;28;20042;-75
2023/06/29 07:41:55;;;;;;;102.07;94.60;;;24.70;99.90;;;;;;5001803;28;20474;-74
2023/06/29 07:44:21;;;;;;;105.97;98.45;;;24.70;99.90;;;;;;5012353;28;20037;-76
2023/06/29 07:46:47;;;;;;;100.38;92.97;;;24.70;99.90;;;;;;5011482;28;20038;-75
2023/06/29 07:49:13;;;;;;;95.97;88.93;;;24.70;99.90;;;;;;4995422;28;20066;-75
2023/06/29 07:51:39;;;;;;;89.88;83.05;;;24.60;99.90;;;;;;5019578;28;20041;-75
2023/06/29 07:54:06;;;;;;;100.50;93.35;;;24.50;99.90;;;;;;5012174;28;20498;-75
2023/06/29 07:56:33;;;;;;;109.22;101.75;;;24.60;99.90;;;;;;5011975;28;20061;-75
2023/06/29 07:58:59;;;;;;;106.93;99.30;;;24.60;99.90;;;;;;5012477;28;20042;-75
2023/06/29 08:01:25;;;;;;;108.05;100.28;;;24.60;99.90;;;;;;5011505;28;20045;-75
2023/06/29 08:03:51;;;;;;;111.32;103.43;;;24.60;99.90;;;;;;5012261;28;20092;-75
2023/06/29 08:06:17;;;;;;;115.80;107.95;;;24.60;99.90;;;;;;5012182;28;20359;-75
2023/06/29 08:08:43;;;;;;;113.30;105.22;;;24.40;99.90;;;;;;5011837;28;20030;-76
2023/06/29 08:11:13;;;;;;;116.18;108.22;;;24.40;99.90;;;;;;5011758;28;20061;-75
2023/06/29 08:13:40;;;;;;;109.25;101.60;;;24.60;99.90;;;;;;5012190;28;20034;-75
2023/06/29 08:16:07;;;;;;;107.30;99.75;;;24.60;99.90;;;;;;5011406;28;20045;-75
2023/06/29 08:18:33;;;;;;;108.53;100.82;;;24.80;99.90;;;;;;5012106;28;20048;-75
2023/06/29 08:20:59;;;;;;;97.50;90.68;;;24.90;99.90;;;;;;5011794;28;20037;-75
2023/06/29 08:23:25;;;;;;;99.38;92.35;;;25.00;99.90;;;;;;5011804;28;20060;-76
2023/06/29 08:25:51;;;;;;;95.32;88.30;;;24.80;99.90;;;;;;5011565;28;20049;-75
2023/06/29 08:28:17;;;;;;;97.30;90.00;;;24.80;99.90;;;;;;5011651;28;20037;-75
2023/06/29 08:30:43;;;;;;;75.15;69.25;;;24.90;99.90;;;;;;5011249;28;20038;-75
2023/06/29 08:33:10;;;;;;;71.13;65.28;;;24.70;99.90;;;;;;5012029;28;20022;-75
2023/06/29 08:35:36;;;;;;;91.03;84.10;;;24.70;99.90;;;;;;5009774;28;20045;-75
2023/06/29 08:38:02;;;;;;;92.00;85.22;;;24.70;99.90;;;;;;4992255;28;20035;-75
2023/06/29 08:40:28;;;;;;;89.15;82.50;;;24.80;99.90;;;;;;4994790;28;20197;-75
2023/06/29 08:42:54;;;;;;;83.45;77.00;;;24.80;99.90;;;;;;5030692;28;20034;-75
2023/06/29 08:45:20;;;;;;;80.50;73.85;;;24.70;99.90;;;;;;5014358;28;20060;-76
2023/06/29 08:47:49;;;;;;;94.38;87.38;;;24.80;99.90;;;;;;5010272;28;20030;-74
2023/06/29 08:50:15;;;;;;;82.97;76.43;;;24.90;99.90;;;;;;4996374;28;20046;-75
2023/06/29 08:52:41;;;;;;;97.45;90.15;;;25.00;99.90;;;;;;5030430;28;20459;-75
2023/06/29 08:55:08;;;;;;;100.15;92.97;;;25.00;99.90;;;;;;5029470;28;20049;-74
2023/06/29 08:57:34;;;;;;;105.72;98.43;;;25.00;99.90;;;;;;5030563;28;20022;-75
2023/06/29 09:00:04;;;;;;;107.47;99.88;;;24.90;99.90;;;;;;5029815;28;20049;-75
2023/06/29 09:02:30;;;;;;;106.78;98.93;;;25.00;99.90;;;;;;5028934;28;20033;-75
2023/06/29 09:04:56;;;;;;;101.28;94.03;;;25.10;99.90;;;;;;5015160;28;20041;-75
2023/06/29 09:07:23;;;;;;;83.68;77.15;;;25.30;99.90;;;;;;5013984;28;20049;-75
2023/06/29 09:09:49;;;;;;;101.80;94.53;;;25.40;99.90;;;;;;5014884;28;20069;-76
2023/06/29 09:12:16;;;;;;;77.20;71.18;;;25.70;99.90;;;;;;5030065;28;20037;-76
2023/06/29 09:14:45;;;;;;;73.95;67.88;;;25.90;99.90;;;;;;5015537;28;20046;-75
2023/06/29 09:17:14;;;;;;;68.05;62.35;;;26.10;99.90;;;;;;5014196;28;20026;-76
2023/06/29 09:19:43;;;;;;;66.00;60.47;;;26.30;99.90;;;;;;5015204;28;20041;-76
2023/06/29 09:22:09;;;;;;;75.38;69.50;;;26.20;99.90;;;;;;5014236;28;20459;-76
2023/06/29 09:24:36;;;;;;;85.88;79.38;;;26.10;99.90;;;;;;5030132;28;20030;-75
2023/06/29 09:27:02;;;;;;;86.65;80.00;;;26.00;99.90;;;;;;5014571;28;20045;-75
2023/06/29 09:29:28;;;;;;;90.00;83.75;;;25.80;99.90;;;;;;5029536;28;20057;-76
2023/06/29 09:31:56;;;;;;;89.22;83.18;;;25.80;99.90;;;;;;5028845;28;20030;-75
2023/06/29 09:34:25;;;;;;;83.10;76.72;;;25.80;99.90;;;;;;5014241;28;20041;-76
2023/06/29 09:36:51;;;;;;;105.28;98.15;;;25.80;99.90;;;;;;5002031;28;20057;-75
2023/06/29 09:39:18;;;;;;;92.35;86.15;;;25.70;99.90;;;;;;4995181;28;20042;-75
2023/06/29 09:42:05;;;;;;;85.22;79.22;;;25.80;99.90;;;;;;5007326;28;20026;-76
2023/06/29 09:44:31;;;;;;;86.50;80.15;;;25.80;99.90;;;;;;5012536;28;20029;-75
2023/06/29 09:47:05;;;;;;;78.88;73.65;;;25.70;99.90;;;;;;5028820;28;20048;-75
2023/06/29 09:49:31;;;;;;;79.25;73.75;;;25.60;99.90;;;;;;4994535;28;20062;-75
2023/06/29 09:52:04;;;;;;;88.70;82.75;;;25.50;99.90;;;;;;5008445;28;20041;-76
2023/06/29 09:54:39;;;;;;;89.35;83.65;;;25.50;99.90;;;;;;5013860;28;20034;-75
2023/06/29 09:57:05;;;;;;;95.32;89.20;;;25.60;99.90;;;;;;5013846;28;20038;-75
2023/06/29 09:59:33;;;;;;;85.20;79.75;;;25.90;99.90;;;;;;5029081;28;20495;-75
2023/06/29 10:02:00;;;;;;;104.85;98.57;;;26.10;99.90;;;;;;5013045;28;20483;-76
2023/06/29 10:04:26;;;;;;;107.80;101.10;;;26.20;99.90;;;;;;5013755;28;20026;-75
2023/06/29 10:07:18;;;;;;;106.82;100.38;;;26.10;99.90;;;;;;5028695;28;20029;-75
2023/06/29 10:09:47;;;;;;;93.93;88.03;;;26.10;99.90;;;;;;5014336;28;20426;-76
2023/06/29 10:12:14;;;;;;;104.90;98.45;;;26.20;99.90;;;;;;5013443;28;20037;-76
2023/06/29 10:14:44;;;;;;;120.93;113.68;;;26.30;99.90;;;;;;5013636;28;20046;-75
2023/06/29 10:17:18;;;;;;;110.10;103.43;;;26.20;99.90;;;;;;5013145;28;20052;-76
2023/06/29 10:19:44;;;;;;;130.02;122.45;;;26.10;99.90;;;;;;5013756;28;20046;-76
2023/06/29 10:22:12;;;;;;;94.53;88.57;;;26.10;99.90;;;;;;5011529;28;20044;-75
2023/06/29 10:24:43;;;;;;;121.32;114.28;;;26.10;99.90;;;;;;5028759;28;20037;-77
2023/06/29 10:27:09;;;;;;;108.07;101.32;;;26.20;99.90;;;;;;5013788;28;20372;-76
2023/06/29 10:29:43;;;;;;;117.22;110.15;;;26.00;99.90;;;;;;5028898;28;20037;-75
2023/06/29 10:32:09;;;;;;;142.75;134.05;;;26.00;99.90;;;;;;5012673;28;20407;-75
2023/06/29 10:34:58;;;;;;;126.45;118.63;;;26.20;99.90;;;;;;5013161;28;20033;-75
2023/06/29 10:37:33;;;;;;;97.82;91.78;;;26.40;99.90;;;;;;4996504;28;20026;-76
2023/06/29 10:39:59;;;;;;;116.97;109.88;;;26.70;99.90;;;;;;4993775;28;20069;-75
2023/06/29 10:42:25;;;;;;;100.28;93.97;;;26.90;99.90;;;;;;5012078;28;20045;-74
2023/06/29 10:44:51;;;;;;;81.97;76.28;;;27.00;99.90;;;;;;5013381;28;20471;-77
2023/06/29 10:47:27;;;;;;;94.88;88.43;;;27.10;98.90;;;;;;5010930;28;20041;-76
2023/06/29 10:50:09;;;;;;;91.32;85.63;;;27.00;99.10;;;;;;4993461;28;20058;-75
2023/06/29 10:52:36;;;;;;;100.80;94.18;;;26.80;98.70;;;;;;5012940;28;20040;-76
2023/06/29 10:55:14;;;;;;;99.68;93.07;;;26.70;98.70;;;;;;5012109;28;20026;-75
2023/06/29 10:57:52;;;;;;;88.97;82.60;;;26.60;98.70;;;;;;4973682;28;20049;-75
2023/06/29 11:00:19;;;;;;;93.72;87.45;;;26.60;98.40;;;;;;4974272;28;20038;-76
2023/06/29 11:02:47;;;;;;;72.18;67.10;;;26.70;99.30;;;;;;4993155;28;20023;-75
2023/06/29 11:05:16;;;;;;;67.45;62.67;;;27.00;98.60;;;;;;4993287;28;20031;-75
2023/06/29 11:07:49;;;;;;;87.20;81.60;;;27.30;97.80;;;;;;4993015;28;20510;-75
2023/06/29 11:10:15;;;;;;;66.18;61.38;;;27.40;99.00;;;;;;4993006;28;20030;-76
2023/06/29 11:12:41;;;;;;;73.95;68.85;;;27.60;98.50;;;;;;4993158;28;20029;-75
2023/06/29 11:15:14;;;;;;;74.70;69.70;;;27.70;98.80;;;;;;4993233;28;20026;-75
2023/06/29 11:17:44;;;;;;;76.07;70.88;;;27.90;98.90;;;;;;5012466;28;20025;-75
2023/06/29 11:20:13;;;;;;;64.82;60.03;;;28.00;98.50;;;;;;5012394;28;20378;-77
2023/06/29 11:22:43;;;;;;;66.45;61.33;;;27.90;97.30;;;;;;5012623;28;20029;-75
2023/06/29 11:25:14;;;;;;;71.43;66.13;;;27.40;97.30;;;;;;5013045;28;20469;-75
2023/06/29 11:27:41;;;;;;;89.60;83.90;;;27.30;97.90;;;;;;4973696;28;20035;-75
2023/06/29 11:30:09;;;;;;;73.60;68.50;;;27.20;98.70;;;;;;4972953;28;20522;-75
2023/06/29 11:32:36;;;;;;;77.75;72.18;;;27.40;98.30;;;;;;4992871;28;20496;-75
2023/06/29 11:35:03;;;;;;;82.47;76.20;;;27.50;98.20;;;;;;4992949;28;20030;-76
2023/06/29 11:37:30;;;;;;;82.30;76.75;;;27.50;98.20;;;;;;4992802;28;20030;-75
2023/06/29 11:39:56;;;;;;;82.18;76.80;;;27.40;97.40;;;;;;4992831;28;20043;-75
2023/06/29 11:42:23;;;;;;;81.57;76.30;;;27.30;97.50;;;;;;4992528;28;20033;-75
2023/06/29 11:44:51;;;;;;;83.45;77.88;;;27.30;97.40;;;;;;4992548;28;20030;-75
2023/06/29 11:47:19;;;;;;;91.25;85.03;;;26.90;97.70;;;;;;5009455;28;20041;-75
2023/06/29 11:49:50;;;;;;;91.75;85.60;;;26.60;98.20;;;;;;4991448;28;20053;-75
2023/06/29 11:52:16;;;;;;;;;;;26.60;98.30;;;;;;5008720;28;20502;-75
2023/06/29 11:54:42;;;;;;;97.15;90.75;;;26.50;98.60;;;;;;5012431;28;19906;-75
2023/06/29 11:57:08;;;;;;;90.22;84.43;;;26.60;98.90;;;;;;5027357;28;20034;-75
2023/06/29 11:59:37;;;;;;;70.78;65.93;;;26.60;98.40;;;;;;5011956;28;20467;-75
2023/06/29 12:02:04;;;;;;;65.45;60.47;;;26.70;97.30;;;;;;5011725;28;20042;-75
2023/06/29 12:04:30;;;;;;;60.75;56.40;;;26.70;96.60;;;;;;5018876;28;20494;-76
2023/06/29 12:06:56;;;;;;;64.82;60.05;;;26.60;96.50;;;;;;5012161;28;20042;-74
2023/06/29 12:09:32;;;;;;;88.85;83.28;;;26.70;96.70;;;;;;5012055;28;20030;-76
2023/06/29 12:11:59;;;;;;;63.08;58.38;;;26.80;97.80;;;;;;5011954;28;20042;-76
2023/06/29 12:14:43;;;;;;;59.72;55.60;;;27.10;97.80;;;;;;5011868;28;20042;-75
2023/06/29 12:17:19;;;;;;;63.38;59.20;;;27.20;97.30;;;;;;5014426;28;20423;-75
2023/06/29 12:19:50;;;;;;;66.45;62.25;;;27.20;97.70;;;;;;5015986;28;20030;-75
2023/06/29 12:22:16;;;;;;;65.35;61.10;;;27.00;97.50;;;;;;5030281;28;20022;-75